Terminal Aerodrome Forecast
Issued by NWS Charleston, SC

Home | Current Version | Previous Version | Text Only | Print | Product List | Glossary On
Versions: 1 2 3 4 5 6 7 8 9 10 11 12 13 14 15 16 17 18 19 20 21 22 23 24 25 26
491
FTUS42 KCHS 200523
TAFCHS
TAF
KCHS 200523Z 2006/2106 04007KT P6SM SKC
     FM201700 06010G19KT P6SM FEW070
     FM202100 10009KT P6SM SCT070
     FM210500 06004KT P6SM FEW150=

USA.gov is the U.S. government's official web portal to all federal, state and local government web resources and services.